sensor_id;sensor_type;location;lat;lon;timestamp;temperature;humidity
26272;DHT22;13997;48.902;12.472;2023-02-01T00:01:44;77.70;2227.20
26272;DHT22;13997;48.902;12.472;2023-02-01T00:04:10;77.70;2227.20
26272;DHT22;13997;48.902;12.472;2023-02-01T00:06:35;77.70;2227.20
26272;DHT22;13997;48.902;12.472;2023-02-01T00:09:01;77.70;2227.20
26272;DHT22;13997;48.902;12.472;2023-02-01T00:11:27;77.70;2227.20
26272;DHT22;13997;48.902;12.472;2023-02-01T00:13:53;77.70;2227.20
26272;DHT22;13997;48.902;12.472;2023-02-01T00:16:26;77.70;2227.20
26272;DHT22;13997;48.902;12.472;2023-02-01T00:18:57;77.70;2227.20
26272;DHT22;13997;48.902;12.472;2023-02-01T00:21:23;77.70;2227.20
26272;DHT22;13997;48.902;12.472;2023-02-01T00:23:49;102.40;2227.20
26272;DHT22;13997;48.902;12.472;2023-02-01T00:26:20;77.70;2227.20
26272;DHT22;13997;48.902;12.472;2023-02-01T00:28:47;77.70;2227.20
26272;DHT22;13997;48.902;12.472;2023-02-01T00:31:12;77.70;2227.20
26272;DHT22;13997;48.902;12.472;2023-02-01T00:33:38;77.70;2227.20
26272;DHT22;13997;48.902;12.472;2023-02-01T00:36:06;77.70;2227.20
26272;DHT22;13997;48.902;12.472;2023-02-01T00:38:33;77.70;2227.20
26272;DHT22;13997;48.902;12.472;2023-02-01T00:41:05;77.70;2227.20
26272;DHT22;13997;48.902;12.472;2023-02-01T00:43:32;77.70;2227.20
26272;DHT22;13997;48.902;12.472;2023-02-01T00:45:57;102.40;2227.20
26272;DHT22;13997;48.902;12.472;2023-02-01T00:48:24;102.40;2227.20
26272;DHT22;13997;48.902;12.472;2023-02-01T00:50:49;102.40;2227.20
26272;DHT22;13997;48.902;12.472;2023-02-01T00:53:15;102.40;2227.20
26272;DHT22;13997;48.902;12.472;2023-02-01T00:55:45;102.40;2227.20
26272;DHT22;13997;48.902;12.472;2023-02-01T00:58:11;102.40;2227.20
26272;DHT22;13997;48.902;12.472;2023-02-01T01:00:37;102.40;2227.20
26272;DHT22;13997;48.902;12.472;2023-02-01T01:03:03;102.40;2227.20
26272;DHT22;13997;48.902;12.472;2023-02-01T01:05:44;102.40;2227.20
26272;DHT22;13997;48.902;12.472;2023-02-01T01:08:09;102.40;2227.20
26272;DHT22;13997;48.902;12.472;2023-02-01T01:10:35;102.40;2227.20
26272;DHT22;13997;48.902;12.472;2023-02-01T01:13:01;102.40;2227.20
26272;DHT22;13997;48.902;12.472;2023-02-01T01:15:26;102.40;2227.20
26272;DHT22;13997;48.902;12.472;2023-02-01T01:17:52;102.40;2227.20
26272;DHT22;13997;48.902;12.472;2023-02-01T01:20:18;102.40;2227.20
26272;DHT22;13997;48.902;12.472;2023-02-01T01:22:47;102.40;2227.20
26272;DHT22;13997;48.902;12.472;2023-02-01T01:25:12;102.50;2227.20
26272;DHT22;13997;48.902;12.472;2023-02-01T01:27:38;102.50;2227.20
26272;DHT22;13997;48.902;12.472;2023-02-01T01:30:04;102.50;2227.20
26272;DHT22;13997;48.902;12.472;2023-02-01T01:32:30;102.50;2227.20
26272;DHT22;13997;48.902;12.472;2023-02-01T01:34:55;102.50;2227.20
26272;DHT22;13997;48.902;12.472;2023-02-01T01:37:21;102.50;2227.20
26272;DHT22;13997;48.902;12.472;2023-02-01T01:39:46;102.50;2227.20
26272;DHT22;13997;48.902;12.472;2023-02-01T01:42:12;102.50;2227.20
26272;DHT22;13997;48.902;12.472;2023-02-01T01:45:05;102.50;2227.20
26272;DHT22;13997;48.902;12.472;2023-02-01T01:47:37;102.60;2227.20
26272;DHT22;13997;48.902;12.472;2023-02-01T01:50:08;102.60;2227.20
26272;DHT22;13997;48.902;12.472;2023-02-01T01:52:37;102.60;2227.20
26272;DHT22;13997;48.902;12.472;2023-02-01T01:55:04;102.60;2227.20
26272;DHT22;13997;48.902;12.472;2023-02-01T01:57:35;102.50;2227.20
26272;DHT22;13997;48.902;12.472;2023-02-01T02:02:30;102.60;2227.20
26272;DHT22;13997;48.902;12.472;2023-02-01T02:04:56;102.60;2227.20
26272;DHT22;13997;48.902;12.472;2023-02-01T02:07:30;102.60;2227.20
26272;DHT22;13997;48.902;12.472;2023-02-01T02:09:56;102.60;2227.20
26272;DHT22;13997;48.902;12.472;2023-02-01T02:12:22;102.60;2227.20
26272;DHT22;13997;48.902;12.472;2023-02-01T02:14:48;102.60;2227.20
26272;DHT22;13997;48.902;12.472;2023-02-01T02:18:01;102.60;2227.20
26272;DHT22;13997;48.902;12.472;2023-02-01T02:36:34;102.60;2227.20
26272;DHT22;13997;48.902;12.472;2023-02-01T02:39:29;102.60;2227.20
26272;DHT22;13997;48.902;12.472;2023-02-01T02:45:38;102.50;2227.20
26272;DHT22;13997;48.902;12.472;2023-02-01T02:48:37;102.50;2227.20
26272;DHT22;13997;48.902;12.472;2023-02-01T02:53:58;102.50;2227.20
26272;DHT22;13997;48.902;12.472;2023-02-01T02:56:44;102.50;2227.20
26272;DHT22;13997;48.902;12.472;2023-02-01T02:59:29;102.50;2227.20
26272;DHT22;13997;48.902;12.472;2023-02-01T03:02:15;102.50;2227.20
26272;DHT22;13997;48.902;12.472;2023-02-01T03:05:00;102.50;2227.20
26272;DHT22;13997;48.902;12.472;2023-02-01T03:13:08;102.50;2227.20
26272;DHT22;13997;48.902;12.472;2023-02-01T03:18:38;102.50;2227.20
26272;DHT22;13997;48.902;12.472;2023-02-01T03:21:10;102.50;2227.20
26272;DHT22;13997;48.902;12.472;2023-02-01T03:23:37;102.50;2227.20
26272;DHT22;13997;48.902;12.472;2023-02-01T03:26:11;102.50;2227.20
26272;DHT22;13997;48.902;12.472;2023-02-01T03:28:43;102.40;2227.20
26272;DHT22;13997;48.902;12.472;2023-02-01T03:31:10;102.50;2227.20
26272;DHT22;13997;48.902;12.472;2023-02-01T03:33:36;102.50;2227.20
26272;DHT22;13997;48.902;12.472;2023-02-01T03:36:15;102.50;2227.20
26272;DHT22;13997;48.902;12.472;2023-02-01T03:44:12;102.50;2227.20
26272;DHT22;13997;48.902;12.472;2023-02-01T03:46:47;102.50;2227.20
26272;DHT22;13997;48.902;12.472;2023-02-01T03:49:22;102.50;2227.20
26272;DHT22;13997;48.902;12.472;2023-02-01T03:51:50;102.50;2227.20
26272;DHT22;13997;48.902;12.472;2023-02-01T03:54:17;102.50;2227.20
26272;DHT22;13997;48.902;12.472;2023-02-01T03:56:45;102.50;2227.20
26272;DHT22;13997;48.902;12.472;2023-02-01T03:59:13;102.50;2227.20
26272;DHT22;13997;48.902;12.472;2023-02-01T04:01:39;102.50;2227.20
26272;DHT22;13997;48.902;12.472;2023-02-01T04:04:06;102.50;2227.20
26272;DHT22;13997;48.902;12.472;2023-02-01T04:06:32;102.50;2227.20
26272;DHT22;13997;48.902;12.472;2023-02-01T04:08:58;102.50;2227.20
26272;DHT22;13997;48.902;12.472;2023-02-01T04:11:23;102.50;2227.20
26272;DHT22;13997;48.902;12.472;2023-02-01T04:13:49;102.50;2227.20
26272;DHT22;13997;48.902;12.472;2023-02-01T04:28:27;102.50;2227.20
26272;DHT22;13997;48.902;12.472;2023-02-01T04:30:53;102.50;2227.20
26272;DHT22;13997;48.902;12.472;2023-02-01T04:33:19;102.50;2227.20
26272;DHT22;13997;48.902;12.472;2023-02-01T04:35:44;102.50;2227.20
26272;DHT22;13997;48.902;12.472;2023-02-01T04:38:10;102.60;2227.20
26272;DHT22;13997;48.902;12.472;2023-02-01T04:40:35;102.60;2227.20
26272;DHT22;13997;48.902;12.472;2023-02-01T04:43:03;102.60;2227.20
26272;DHT22;13997;48.902;12.472;2023-02-01T04:45:29;102.60;2227.20
26272;DHT22;13997;48.902;12.472;2023-02-01T04:47:55;102.60;2227.20
26272;DHT22;13997;48.902;12.472;2023-02-01T04:50:20;102.70;2227.20
26272;DHT22;13997;48.902;12.472;2023-02-01T04:52:46;102.70;2227.20
26272;DHT22;13997;48.902;12.472;2023-02-01T13:10:45;128.40;2252.80
26272;DHT22;13997;48.902;12.472;2023-02-01T13:15:48;128.30;2252.80
26272;DHT22;13997;48.902;12.472;2023-02-01T13:18:20;128.10;2252.80
26272;DHT22;13997;48.902;12.472;2023-02-01T13:21:03;128.00;2252.80
26272;DHT22;13997;48.902;12.472;2023-02-01T13:23:39;103.30;2227.20
26272;DHT22;13997;48.902;12.472;2023-02-01T13:26:05;103.20;2227.20
26272;DHT22;13997;48.902;12.472;2023-02-01T13:37:12;103.10;2227.20
26272;DHT22;13997;48.902;12.472;2023-02-01T13:45:02;103.10;2227.20
26272;DHT22;13997;48.902;12.472;2023-02-01T13:47:43;103.10;2227.20
26272;DHT22;13997;48.902;12.472;2023-02-01T13:50:29;103.10;2227.20
26272;DHT22;13997;48.902;12.472;2023-02-01T13:52:58;103.10;2227.20
26272;DHT22;13997;48.902;12.472;2023-02-01T13:55:31;103.10;2227.20
26272;DHT22;13997;48.902;12.472;2023-02-01T13:58:19;103.10;2227.20
26272;DHT22;13997;48.902;12.472;2023-02-01T14:00:48;103.10;2227.20
26272;DHT22;13997;48.902;12.472;2023-02-01T14:03:16;103.10;2227.20
26272;DHT22;13997;48.902;12.472;2023-02-01T14:08:20;103.10;2227.20
26272;DHT22;13997;48.902;12.472;2023-02-01T14:21:33;103.10;2227.20
26272;DHT22;13997;48.902;12.472;2023-02-01T14:24:12;103.10;2227.20
26272;DHT22;13997;48.902;12.472;2023-02-01T14:26:51;103.10;2227.20
26272;DHT22;13997;48.902;12.472;2023-02-01T14:29:36;103.20;2227.20
26272;DHT22;13997;48.902;12.472;2023-02-01T14:32:04;103.20;2227.20
26272;DHT22;13997;48.902;12.472;2023-02-01T14:37:10;103.20;2227.20
26272;DHT22;13997;48.902;12.472;2023-02-01T14:55:43;103.20;2227.20
26272;DHT22;13997;48.902;12.472;2023-02-01T15:01:04;103.20;2227.20
26272;DHT22;13997;48.902;12.472;2023-02-01T15:06:22;103.20;2227.20
26272;DHT22;13997;48.902;12.472;2023-02-01T15:08:49;103.20;2227.20
26272;DHT22;13997;48.902;12.472;2023-02-01T15:11:16;103.20;2227.20
26272;DHT22;13997;48.902;12.472;2023-02-01T15:13:49;103.20;2227.20
26272;DHT22;13997;48.902;12.472;2023-02-01T15:16:16;103.20;2227.20
26272;DHT22;13997;48.902;12.472;2023-02-01T15:18:42;103.20;2227.20
26272;DHT22;13997;48.902;12.472;2023-02-01T15:21:18;103.20;2227.20
26272;DHT22;13997;48.902;12.472;2023-02-01T15:23:44;103.20;2227.20
26272;DHT22;13997;48.902;12.472;2023-02-01T15:26:25;103.20;2227.20
26272;DHT22;13997;48.902;12.472;2023-02-01T15:28:51;103.20;2227.20
26272;DHT22;13997;48.902;12.472;2023-02-01T15:31:37;103.20;2227.20
26272;DHT22;13997;48.902;12.472;2023-02-01T15:34:03;103.20;2227.20
26272;DHT22;13997;48.902;12.472;2023-02-01T15:36:29;103.20;2227.20
26272;DHT22;13997;48.902;12.472;2023-02-01T15:41:49;103.10;2227.20
26272;DHT22;13997;48.902;12.472;2023-02-01T15:44:37;103.10;2227.20
26272;DHT22;13997;48.902;12.472;2023-02-01T15:47:18;103.10;2227.20
26272;DHT22;13997;48.902;12.472;2023-02-01T15:49:47;103.10;2227.20
26272;DHT22;13997;48.902;12.472;2023-02-01T15:52:36;103.10;2227.20
26272;DHT22;13997;48.902;12.472;2023-02-01T15:55:08;103.10;2227.20
26272;DHT22;13997;48.902;12.472;2023-02-01T15:57:42;103.10;2227.20
26272;DHT22;13997;48.902;12.472;2023-02-01T16:08:16;103.10;2227.20
26272;DHT22;13997;48.902;12.472;2023-02-01T16:10:45;103.20;2227.20
26272;DHT22;13997;48.902;12.472;2023-02-01T16:13:12;103.20;2227.20
26272;DHT22;13997;48.902;12.472;2023-02-01T16:15:38;103.20;2227.20
26272;DHT22;13997;48.902;12.472;2023-02-01T16:18:05;103.20;2227.20
26272;DHT22;13997;48.902;12.472;2023-02-01T16:20:33;103.20;2227.20
26272;DHT22;13997;48.902;12.472;2023-02-01T16:23:01;103.20;2227.20
26272;DHT22;13997;48.902;12.472;2023-02-01T16:25:27;103.20;2227.20
26272;DHT22;13997;48.902;12.472;2023-02-01T16:27:52;103.20;2227.20
26272;DHT22;13997;48.902;12.472;2023-02-01T16:30:18;103.20;2227.20
26272;DHT22;13997;48.902;12.472;2023-02-01T16:32:49;103.20;2227.20
26272;DHT22;13997;48.902;12.472;2023-02-01T16:35:30;103.20;2227.20
26272;DHT22;13997;48.902;12.472;2023-02-01T16:38:04;103.20;2227.20
26272;DHT22;13997;48.902;12.472;2023-02-01T16:40:35;103.30;2227.20
26272;DHT22;13997;48.902;12.472;2023-02-01T16:43:00;103.30;2227.20
26272;DHT22;13997;48.902;12.472;2023-02-01T16:45:26;103.30;2227.20
26272;DHT22;13997;48.902;12.472;2023-02-01T16:47:55;103.20;2227.20
26272;DHT22;13997;48.902;12.472;2023-02-01T16:50:23;103.20;2227.20
26272;DHT22;13997;48.902;12.472;2023-02-01T16:52:50;103.20;2227.20
26272;DHT22;13997;48.902;12.472;2023-02-01T16:55:18;103.20;2227.20
26272;DHT22;13997;48.902;12.472;2023-02-01T16:57:44;103.20;2227.20
26272;DHT22;13997;48.902;12.472;2023-02-01T17:00:11;103.20;2227.20
26272;DHT22;13997;48.902;12.472;2023-02-01T17:02:41;103.30;2227.20
26272;DHT22;13997;48.902;12.472;2023-02-01T17:05:08;103.20;2227.20
26272;DHT22;13997;48.902;12.472;2023-02-01T17:07:34;103.20;2227.20
26272;DHT22;13997;48.902;12.472;2023-02-01T17:10:00;103.20;2227.20
26272;DHT22;13997;48.902;12.472;2023-02-01T17:12:30;103.30;2227.20
26272;DHT22;13997;48.902;12.472;2023-02-01T17:14:57;103.30;2227.20
26272;DHT22;13997;48.902;12.472;2023-02-01T17:17:25;103.30;2227.20
26272;DHT22;13997;48.902;12.472;2023-02-01T17:19:53;103.30;2227.20
26272;DHT22;13997;48.902;12.472;2023-02-01T17:22:20;103.30;2227.20
26272;DHT22;13997;48.902;12.472;2023-02-01T17:24:46;103.30;2227.20
26272;DHT22;13997;48.902;12.472;2023-02-01T17:27:12;103.30;2227.20
26272;DHT22;13997;48.902;12.472;2023-02-01T17:29:38;128.00;2252.80
26272;DHT22;13997;48.902;12.472;2023-02-01T17:32:03;128.00;2252.80
26272;DHT22;13997;48.902;12.472;2023-02-01T17:34:29;128.00;2252.80
26272;DHT22;13997;48.902;12.472;2023-02-01T17:36:55;103.30;2227.20
26272;DHT22;13997;48.902;12.472;2023-02-01T17:39:21;103.30;2227.20
26272;DHT22;13997;48.902;12.472;2023-02-01T17:42:10;103.30;2227.20
26272;DHT22;13997;48.902;12.472;2023-02-01T17:44:36;103.30;2227.20
26272;DHT22;13997;48.902;12.472;2023-02-01T17:47:02;103.30;2227.20
26272;DHT22;13997;48.902;12.472;2023-02-01T17:49:27;103.30;2227.20
26272;DHT22;13997;48.902;12.472;2023-02-01T17:51:54;103.30;2227.20
26272;DHT22;13997;48.902;12.472;2023-02-01T17:54:20;103.30;2227.20
26272;DHT22;13997;48.902;12.472;2023-02-01T17:56:46;103.30;2227.20
26272;DHT22;13997;48.902;12.472;2023-02-01T17:59:14;103.30;2227.20
26272;DHT22;13997;48.902;12.472;2023-02-01T18:01:41;103.30;2227.20
26272;DHT22;13997;48.902;12.472;2023-02-01T18:04:16;128.00;2252.80
26272;DHT22;13997;48.902;12.472;2023-02-01T18:06:42;103.30;2227.20
26272;DHT22;13997;48.902;12.472;2023-02-01T18:09:09;128.00;2252.80
